createdAt,value
2019-01-31T00:02:25.339Z,3.57
2019-01-31T00:07:26.051Z,1.93
2019-01-31T00:12:29.688Z,2.00
2019-01-31T00:17:45.283Z,1.83
2019-01-31T00:22:54.768Z,2.57
2019-01-31T00:27:52.371Z,2.73
2019-01-31T00:32:52.973Z,1.83
2019-01-31T00:37:50.581Z,3.60
2019-01-31T00:42:48.195Z,4.17
2019-01-31T00:47:51.847Z,4.80
2019-01-31T00:52:55.459Z,6.00
2019-01-31T00:58:02.341Z,5.83
2019-01-31T01:03:16.459Z,6.30
2019-01-31T01:08:14.339Z,3.00
2019-01-31T01:13:14.732Z,3.60
2019-01-31T01:18:21.415Z,2.30
2019-01-31T01:23:22.025Z,1.67
2019-01-31T01:28:25.835Z,1.87
2019-01-31T01:33:29.459Z,4.73
2019-01-31T01:38:27.081Z,1.83
2019-01-31T01:43:30.790Z,2.10
2019-01-31T01:48:28.411Z,1.60
2019-01-31T01:53:31.773Z,2.30
2019-01-31T01:58:32.105Z,4.30
2019-01-31T02:03:45.170Z,2.90
2019-01-31T02:08:45.920Z,3.67
2019-01-31T02:13:55.276Z,2.07
2019-01-31T02:19:02.237Z,2.97
2019-01-31T02:23:59.856Z,1.57
2019-01-31T02:29:00.231Z,1.70
2019-01-31T02:34:07.023Z,2.33
2019-01-31T02:39:17.058Z,3.30
2019-01-31T02:44:17.486Z,2.10
2019-01-31T02:49:15.186Z,3.07
2019-01-31T02:54:24.703Z,2.60
2019-01-31T02:59:25.319Z,5.83
2019-01-31T03:04:26.251Z,3.00
2019-01-31T03:09:29.657Z,4.00
2019-01-31T03:14:27.272Z,2.60
2019-01-31T03:19:27.899Z,5.70
2019-01-31T03:24:28.242Z,3.57
2019-01-31T03:29:42.627Z,3.67
2019-01-31T03:34:40.513Z,4.83
2019-01-31T03:39:38.333Z,3.00
2019-01-31T03:44:35.940Z,2.70
2019-01-31T03:49:33.553Z,3.27
2019-01-31T03:54:37.184Z,4.20
2019-01-31T03:59:33.692Z,3.03
2019-01-31T04:04:31.343Z,3.67
2019-01-31T04:09:27.045Z,3.80
2019-01-31T04:14:22.871Z,3.23
2019-01-31T04:19:18.647Z,3.43
2019-01-31T04:24:14.367Z,3.03
2019-01-31T04:29:10.188Z,3.10
2019-01-31T04:34:05.878Z,4.27
2019-01-31T04:39:01.621Z,3.13
2019-01-31T04:43:57.321Z,2.53
2019-01-31T04:48:53.021Z,2.30
2019-01-31T04:53:48.757Z,7.57
2019-01-31T04:58:44.481Z,5.17
2019-01-31T05:03:40.207Z,3.03
2019-01-31T05:08:35.941Z,3.23
2019-01-31T05:13:31.664Z,3.80
2019-01-31T05:18:27.377Z,3.23
2019-01-31T05:23:23.034Z,2.60
2019-01-31T05:28:18.986Z,4.53
2019-01-31T05:33:14.706Z,4.33
2019-01-31T05:38:10.660Z,6.20
2019-01-31T05:43:06.392Z,2.93
2019-01-31T05:48:02.061Z,3.30
2019-01-31T05:52:57.768Z,3.00
2019-01-31T05:57:53.594Z,3.93
2019-01-31T06:02:49.418Z,3.00
2019-01-31T06:07:45.138Z,3.13
2019-01-31T06:12:40.943Z,4.13
2019-01-31T06:17:36.650Z,3.13
2019-01-31T06:22:32.335Z,3.57
2019-01-31T06:27:28.050Z,4.57
2019-01-31T06:32:23.741Z,3.53
2019-01-31T06:37:19.454Z,30.20
2019-01-31T06:42:15.401Z,6.60
2019-01-31T06:47:11.107Z,5.13
2019-01-31T06:52:06.779Z,5.83
2019-01-31T06:57:02.625Z,4.37
2019-01-31T07:01:58.355Z,3.50
2019-01-31T07:06:54.071Z,4.63
2019-01-31T07:11:49.755Z,5.20
2019-01-31T07:16:45.480Z,3.97
2019-01-31T07:21:41.205Z,3.87
2019-01-31T07:26:36.871Z,5.80
2019-01-31T07:31:32.583Z,6.93
2019-01-31T07:36:28.295Z,4.67
2019-01-31T07:41:24.008Z,4.97
2019-01-31T07:46:19.723Z,3.70
2019-01-31T07:51:15.475Z,4.70
2019-01-31T07:56:11.197Z,4.07
2019-01-31T08:01:07.007Z,6.70
2019-01-31T08:06:02.858Z,2.73
2019-01-31T08:10:58.579Z,3.40
2019-01-31T08:15:54.272Z,3.90
2019-01-31T08:20:50.026Z,6.13
2019-01-31T08:25:45.859Z,4.00
2019-01-31T08:30:42.033Z,5.07
2019-01-31T08:35:37.731Z,3.23
2019-01-31T08:40:33.455Z,3.20
2019-01-31T08:45:29.194Z,4.47
2019-01-31T08:50:28.364Z,2.53
2019-01-31T08:55:24.166Z,3.50
2019-01-31T09:00:23.909Z,4.37
2019-01-31T09:05:19.717Z,5.57
2019-01-31T09:10:16.654Z,2.87
2019-01-31T09:15:13.731Z,3.10
2019-01-31T09:20:11.036Z,4.03
2019-01-31T09:25:08.655Z,3.83
2019-01-31T09:30:09.051Z,5.70
2019-01-31T09:35:15.407Z,3.10
2019-01-31T09:40:22.161Z,4.63
2019-01-31T09:45:19.783Z,2.90
2019-01-31T09:50:23.391Z,2.90
2019-01-31T09:55:32.919Z,3.20
2019-01-31T10:00:42.453Z,2.53
2019-01-31T10:05:40.105Z,2.90
2019-01-31T10:10:49.889Z,2.63
2019-01-31T10:15:53.724Z,4.80
2019-01-31T10:20:57.529Z,4.70
2019-01-31T10:26:03.979Z,5.07
2019-01-31T10:31:07.728Z,3.20
2019-01-31T10:36:08.117Z,4.72
2019-01-31T10:41:05.750Z,4.65
2019-01-31T10:46:06.228Z,4.70
2019-01-31T10:51:16.003Z,4.47
2019-01-31T10:56:13.610Z,6.93
2019-01-31T11:01:26.409Z,3.20
2019-01-31T11:06:33.191Z,6.90
2019-01-31T11:11:31.065Z,7.43
2019-01-31T11:16:31.704Z,4.40
2019-01-31T11:21:29.557Z,4.00
2019-01-31T11:26:33.104Z,6.75
2019-01-31T11:31:42.809Z,4.90
2019-01-31T11:36:52.479Z,8.50
2019-01-31T11:41:50.096Z,9.05
2019-01-31T11:46:47.699Z,5.07
2019-01-31T11:51:51.468Z,5.40
2019-01-31T11:56:49.106Z,6.00
2019-01-31T12:01:44.909Z,8.50
2019-01-31T12:06:40.751Z,7.72
2019-01-31T12:11:36.922Z,5.70
2019-01-31T12:16:32.647Z,10.88
2019-01-31T12:21:28.431Z,4.33
2019-01-31T12:26:24.158Z,4.92
2019-01-31T12:31:19.853Z,4.75
2019-01-31T12:36:15.666Z,7.62
2019-01-31T12:41:11.369Z,4.22
2019-01-31T12:46:07.087Z,5.10
2019-01-31T12:51:03.802Z,2.67
2019-01-31T12:55:59.614Z,3.00
2019-01-31T13:00:55.327Z,4.70
2019-01-31T13:05:51.252Z,2.97
2019-01-31T13:10:47.060Z,3.27
2019-01-31T13:15:42.743Z,6.43
2019-01-31T13:20:38.831Z,10.20
2019-01-31T13:25:34.674Z,5.67
2019-01-31T13:30:30.356Z,3.57
2019-01-31T13:35:26.249Z,6.40
2019-01-31T13:40:22.973Z,4.00
2019-01-31T13:45:22.937Z,5.03
2019-01-31T13:50:18.998Z,3.77
2019-01-31T13:55:19.639Z,3.03
2019-01-31T14:00:19.192Z,4.87
2019-01-31T14:05:15.046Z,7.07
2019-01-31T14:10:12.870Z,2.70
2019-01-31T14:15:10.501Z,5.60
2019-01-31T14:20:08.135Z,3.00
2019-01-31T14:25:04.707Z,3.80
2019-01-31T14:30:00.637Z,7.90
2019-01-31T14:34:56.343Z,2.53
2019-01-31T14:39:52.297Z,2.77
2019-01-31T14:44:48.425Z,4.27
2019-01-31T14:49:44.165Z,2.57
2019-01-31T14:54:39.903Z,3.50
2019-01-31T14:59:35.713Z,6.57
2019-01-31T15:04:31.454Z,3.80
2019-01-31T15:09:27.255Z,2.33
2019-01-31T15:14:31.451Z,3.67
2019-01-31T15:19:21.076Z,5.97
2019-01-31T15:24:16.778Z,9.43
2019-01-31T15:29:12.465Z,2.27
2019-01-31T15:34:08.276Z,2.70
2019-01-31T15:39:05.397Z,6.10
2019-01-31T15:44:01.225Z,3.27
2019-01-31T15:48:56.907Z,5.23
2019-01-31T15:53:52.774Z,6.70
2019-01-31T15:58:48.509Z,8.63
2019-01-31T16:03:44.484Z,6.97
2019-01-31T16:08:40.334Z,9.70
2019-01-31T16:13:36.051Z,6.03
2019-01-31T16:18:31.935Z,5.23
2019-01-31T16:23:27.727Z,6.63
2019-01-31T16:28:23.431Z,5.97
2019-01-31T16:33:19.148Z,20.80
2019-01-31T16:38:14.949Z,14.07
2019-01-31T16:43:10.763Z,5.97
2019-01-31T16:48:06.679Z,4.20
2019-01-31T16:53:03.466Z,6.97
2019-01-31T16:57:59.329Z,2.47
2019-01-31T17:02:55.119Z,5.70
2019-01-31T17:07:51.234Z,12.67
2019-01-31T17:12:47.033Z,8.93
2019-01-31T17:17:42.860Z,10.17
2019-01-31T17:22:38.561Z,12.20
2019-01-31T17:27:34.284Z,6.13
2019-01-31T17:32:30.028Z,5.73
2019-01-31T17:37:25.757Z,6.67
2019-01-31T17:42:21.436Z,8.97
2019-01-31T17:47:17.151Z,11.63
2019-01-31T17:52:12.894Z,7.23
2019-01-31T17:57:08.737Z,11.53
2019-01-31T18:02:04.523Z,28.07
2019-01-31T18:07:00.273Z,13.33
2019-01-31T18:11:56.371Z,7.87
2019-01-31T18:16:52.085Z,5.63
2019-01-31T18:21:47.894Z,7.77
2019-01-31T18:26:43.610Z,15.97
2019-01-31T18:31:39.372Z,8.53
2019-01-31T18:36:35.081Z,9.83
2019-01-31T18:41:30.780Z,8.67
2019-01-31T18:46:26.520Z,15.07
2019-01-31T18:51:22.514Z,15.80
2019-01-31T18:56:18.505Z,8.57
2019-01-31T19:01:14.348Z,10.83
2019-01-31T19:06:10.294Z,14.50
2019-01-31T19:11:06.268Z,10.17
2019-01-31T19:16:05.450Z,10.50
2019-01-31T19:20:59.710Z,22.17
2019-01-31T19:25:55.410Z,11.43
2019-01-31T19:30:51.107Z,15.23
2019-01-31T19:35:46.927Z,15.53
2019-01-31T19:40:43.074Z,10.90
2019-01-31T19:45:39.978Z,15.27
2019-01-31T19:50:36.017Z,15.47
2019-01-31T19:55:32.084Z,21.83
2019-01-31T20:00:27.791Z,16.07
2019-01-31T20:05:24.059Z,18.83
2019-01-31T20:10:24.329Z,21.77
2019-01-31T20:15:20.341Z,16.53
2019-01-31T20:20:20.207Z,18.77
2019-01-31T20:25:16.477Z,15.17
2019-01-31T20:30:17.010Z,17.30
2019-01-31T20:35:14.317Z,18.33
2019-01-31T20:40:11.940Z,23.87
2019-01-31T20:45:09.207Z,20.77
2019-01-31T20:50:06.855Z,24.17
2019-01-31T20:55:04.227Z,23.07
2019-01-31T20:59:59.940Z,23.00
2019-01-31T21:04:55.762Z,27.23
2019-01-31T21:09:51.517Z,24.70
2019-01-31T21:14:47.289Z,24.73
2019-01-31T21:19:43.007Z,21.00
2019-01-31T21:24:38.721Z,22.03
2019-01-31T21:29:34.471Z,19.63
2019-01-31T21:34:30.306Z,19.97
2019-01-31T21:39:26.280Z,19.00
2019-01-31T21:44:22.011Z,20.83
2019-01-31T21:49:17.717Z,20.47
2019-01-31T21:54:13.440Z,22.20
2019-01-31T21:59:09.140Z,21.90
2019-01-31T22:04:04.912Z,24.47
2019-01-31T22:09:00.691Z,23.03
2019-01-31T22:13:56.541Z,24.33
2019-01-31T22:18:52.335Z,23.00
2019-01-31T22:23:48.061Z,22.37
2019-01-31T22:28:43.751Z,22.03
2019-01-31T22:33:39.444Z,20.53
2019-01-31T22:38:35.502Z,21.17
2019-01-31T22:43:31.211Z,20.83
2019-01-31T22:48:26.953Z,18.17
2019-01-31T22:53:22.741Z,17.03
2019-01-31T22:58:18.437Z,18.93
2019-01-31T23:03:14.363Z,18.43
2019-01-31T23:08:10.180Z,17.83
2019-01-31T23:13:05.891Z,18.63
2019-01-31T23:18:01.672Z,17.10
2019-01-31T23:22:57.405Z,15.70
2019-01-31T23:27:53.220Z,16.57
2019-01-31T23:32:49.031Z,19.20
2019-01-31T23:37:44.739Z,16.33
2019-01-31T23:42:40.561Z,14.23
2019-01-31T23:47:36.274Z,15.77
2019-01-31T23:52:32.397Z,15.93
2019-01-31T23:57:28.086Z,15.00
